createdAt,value
2022-11-19T00:02:43.049Z,0.40
2022-11-19T00:07:34.862Z,0.77
2022-11-19T00:12:45.131Z,0.30
2022-11-19T00:17:36.772Z,0.38
2022-11-19T00:22:28.452Z,0.40
2022-11-19T00:27:20.091Z,0.30
2022-11-19T00:32:11.744Z,0.40
2022-11-19T00:37:03.400Z,0.45
2022-11-19T00:41:55.173Z,0.30
2022-11-19T00:46:46.879Z,0.47
2022-11-19T00:51:38.617Z,0.30
2022-11-19T00:56:30.317Z,0.30
2022-11-19T01:01:24.198Z,0.38
2022-11-19T01:06:19.744Z,0.60
2022-11-19T01:11:32.414Z,0.30
2022-11-19T01:16:28.653Z,0.68
2022-11-19T01:21:22.861Z,0.32
2022-11-19T01:26:15.724Z,0.30
2022-11-19T01:31:20.754Z,0.30
2022-11-19T01:36:15.280Z,0.30
2022-11-19T01:41:07.971Z,0.30
2022-11-19T01:45:59.546Z,0.35
2022-11-19T01:50:57.317Z,0.30
2022-11-19T01:55:50.722Z,0.30
2022-11-19T02:00:42.884Z,0.38
2022-11-19T02:05:36.175Z,0.40
2022-11-19T02:10:46.085Z,0.32
2022-11-19T02:15:48.113Z,0.85
2022-11-19T02:21:14.914Z,0.30
2022-11-19T02:26:34.369Z,0.30
2022-11-19T02:31:42.532Z,0.50
2022-11-19T02:36:41.000Z,0.30
2022-11-19T02:41:55.251Z,0.32
2022-11-19T02:46:50.389Z,0.47
2022-11-19T02:51:42.916Z,0.30
2022-11-19T02:57:04.231Z,0.50
2022-11-19T03:02:15.206Z,1.85
2022-11-19T03:07:25.052Z,0.35
2022-11-19T03:12:37.776Z,0.30
2022-11-19T03:17:54.803Z,0.20
2022-11-19T03:22:54.159Z,0.40
2022-11-19T03:27:49.363Z,0.30
2022-11-19T03:32:47.636Z,0.30
2022-11-19T03:37:42.977Z,0.40
2022-11-19T03:42:35.684Z,0.65
2022-11-19T03:47:40.979Z,0.30
2022-11-19T03:52:33.492Z,0.38
2022-11-19T03:57:26.916Z,0.40
2022-11-19T04:02:19.098Z,0.30
2022-11-19T04:07:18.133Z,0.20
2022-11-19T04:12:16.358Z,0.30
2022-11-19T04:21:59.587Z,1.20
2022-11-19T04:26:51.267Z,0.30
2022-11-19T04:31:43.420Z,0.30
2022-11-19T04:36:36.799Z,0.35
2022-11-19T04:41:28.632Z,0.30
2022-11-19T04:46:20.404Z,0.30
2022-11-19T04:51:12.106Z,0.30
2022-11-19T04:56:04.153Z,0.52
2022-11-19T05:00:55.830Z,0.32
2022-11-19T05:05:47.584Z,0.40
2022-11-19T05:10:39.231Z,0.30
2022-11-19T05:15:30.979Z,1.30
2022-11-19T05:20:22.553Z,0.30
2022-11-19T05:25:14.426Z,0.30
2022-11-19T05:30:06.798Z,0.22
2022-11-19T05:34:58.455Z,0.60
2022-11-19T05:39:50.022Z,0.40
2022-11-19T05:44:41.704Z,0.50
2022-11-19T05:49:33.305Z,0.40
2022-11-19T05:54:25.125Z,0.52
2022-11-19T05:59:17.225Z,0.55
2022-11-19T06:04:11.073Z,0.30
2022-11-19T06:09:02.752Z,0.30
2022-11-19T06:13:54.466Z,0.30
2022-11-19T06:18:46.085Z,0.52
2022-11-19T06:23:37.717Z,0.30
2022-11-19T06:28:29.505Z,0.40
2022-11-19T06:33:21.080Z,0.40
2022-11-19T06:38:13.024Z,0.40
2022-11-19T06:43:05.127Z,0.20
2022-11-19T06:47:56.785Z,0.25
2022-11-19T06:52:48.760Z,0.25
2022-11-19T06:57:40.383Z,0.40
2022-11-19T07:02:32.062Z,0.40
2022-11-19T07:07:23.790Z,0.40
2022-11-19T07:12:15.560Z,0.30
2022-11-19T07:17:07.281Z,0.40
2022-11-19T07:21:58.955Z,0.35
2022-11-19T07:26:50.623Z,0.20
2022-11-19T07:31:42.485Z,0.40
2022-11-19T07:36:34.228Z,0.20
2022-11-19T07:41:44.592Z,0.32
2022-11-19T07:46:36.398Z,0.40
2022-11-19T07:51:28.503Z,0.45
2022-11-19T07:56:20.606Z,0.43
2022-11-19T08:01:18.576Z,0.20
2022-11-19T08:06:10.443Z,0.40
2022-11-19T08:11:06.809Z,0.60
2022-11-19T08:16:06.750Z,0.50
2022-11-19T08:21:11.898Z,0.80
2022-11-19T08:26:06.075Z,0.40
2022-11-19T08:31:04.956Z,0.40
2022-11-19T08:35:56.610Z,0.70
2022-11-19T08:40:53.091Z,0.40
2022-11-19T08:45:54.422Z,0.43
2022-11-19T08:50:46.080Z,0.50
2022-11-19T08:55:37.702Z,0.45
2022-11-19T09:00:30.136Z,0.82
2022-11-19T09:05:21.904Z,0.50
2022-11-19T09:10:13.617Z,0.77
2022-11-19T09:15:06.131Z,0.80
2022-11-19T09:19:57.986Z,0.65
2022-11-19T09:24:49.712Z,0.50
2022-11-19T09:29:41.345Z,0.65
2022-11-19T09:34:35.258Z,0.30
2022-11-19T09:39:26.910Z,0.50
2022-11-19T09:44:18.659Z,0.60
2022-11-19T09:49:17.224Z,0.40
2022-11-19T09:54:18.048Z,0.50
2022-11-19T09:59:39.472Z,0.50
2022-11-19T10:04:33.557Z,0.50
2022-11-19T10:09:50.997Z,0.40
2022-11-19T10:14:48.481Z,0.30
2022-11-19T10:19:56.599Z,0.38
2022-11-19T10:25:13.563Z,0.50
2022-11-19T10:30:17.206Z,0.30
2022-11-19T10:35:18.119Z,0.40
2022-11-19T10:40:17.071Z,0.40
2022-11-19T10:45:25.631Z,0.30
2022-11-19T10:50:19.375Z,0.38
2022-11-19T10:55:33.397Z,0.30
2022-11-19T11:00:25.068Z,0.50
2022-11-19T11:05:19.095Z,0.30
2022-11-19T11:10:35.483Z,0.30
2022-11-19T11:15:27.604Z,0.75
2022-11-19T11:20:20.166Z,0.40
2022-11-19T11:25:24.332Z,0.40
2022-11-19T11:30:17.571Z,0.45
2022-11-19T11:35:29.892Z,0.40
2022-11-19T11:40:24.039Z,0.93
2022-11-19T11:45:33.003Z,0.50
2022-11-19T11:50:27.585Z,0.45
2022-11-19T11:55:25.589Z,0.40
2022-11-19T12:00:45.659Z,0.40
2022-11-19T12:05:45.900Z,0.50
2022-11-19T12:11:01.749Z,0.40
2022-11-19T12:16:31.139Z,0.50
2022-11-19T12:21:43.923Z,0.40
2022-11-19T12:26:47.528Z,0.60
2022-11-19T12:31:57.629Z,0.50
2022-11-19T12:37:04.544Z,0.40
2022-11-19T12:42:08.382Z,0.80
2022-11-19T12:47:12.938Z,0.60
2022-11-19T12:52:50.308Z,0.50
2022-11-19T12:58:10.658Z,0.40
2022-11-19T13:03:36.438Z,0.50
2022-11-19T13:08:43.801Z,0.50
2022-11-19T13:13:37.859Z,0.60
2022-11-19T13:18:34.642Z,0.43
2022-11-19T13:23:32.743Z,0.38
2022-11-19T13:28:30.672Z,0.40
2022-11-19T13:38:27.542Z,0.30
2022-11-19T13:43:39.940Z,0.52
2022-11-19T13:48:39.810Z,0.75
2022-11-19T13:53:40.820Z,0.65
2022-11-19T13:58:38.403Z,0.50
2022-11-19T14:03:44.059Z,0.50
2022-11-19T14:09:00.184Z,1.00
2022-11-19T14:14:40.840Z,1.15
2022-11-19T14:20:07.635Z,3.40
2022-11-19T14:25:18.087Z,3.15
2022-11-19T14:30:12.464Z,0.60
2022-11-19T14:35:04.682Z,0.52
2022-11-19T14:40:02.817Z,0.50
2022-11-19T14:45:03.444Z,0.50
2022-11-19T14:49:55.388Z,0.40
2022-11-19T14:54:54.717Z,0.50
2022-11-19T14:59:51.048Z,0.43
2022-11-19T15:04:53.320Z,0.65
2022-11-19T15:09:51.412Z,0.50
2022-11-19T15:20:19.805Z,0.70
2022-11-19T15:25:26.798Z,0.80
2022-11-19T15:30:39.186Z,0.50
2022-11-19T15:36:15.989Z,0.60
2022-11-19T15:41:12.874Z,0.60
2022-11-19T15:46:12.477Z,2.33
2022-11-19T15:51:07.248Z,1.48
2022-11-19T15:56:07.193Z,0.95
2022-11-19T16:00:59.080Z,1.58
2022-11-19T16:06:07.823Z,1.88
2022-11-19T16:11:20.727Z,1.10
2022-11-19T16:16:55.603Z,1.13
2022-11-19T16:22:07.743Z,1.52
2022-11-19T16:27:01.506Z,1.70
2022-11-19T16:31:56.931Z,0.80
2022-11-19T16:36:49.447Z,0.50
2022-11-19T16:42:00.833Z,0.98
2022-11-19T16:46:52.645Z,0.82
2022-11-19T16:51:50.299Z,0.70
2022-11-19T16:56:47.750Z,0.70
2022-11-19T17:01:39.631Z,0.60
2022-11-19T17:06:33.398Z,1.88
2022-11-19T17:12:10.513Z,2.00
2022-11-19T17:17:03.813Z,3.45
2022-11-19T17:22:18.340Z,3.58
2022-11-19T17:27:29.627Z,2.08
2022-11-19T17:32:21.506Z,1.27
2022-11-19T17:37:13.415Z,1.08
2022-11-19T17:42:23.647Z,0.90
2022-11-19T17:47:22.777Z,0.80
2022-11-19T17:52:30.427Z,0.75
2022-11-19T17:57:22.494Z,0.70
2022-11-19T18:02:16.567Z,0.60
2022-11-19T18:07:08.247Z,0.80
2022-11-19T18:12:00.173Z,0.98
2022-11-19T18:16:52.046Z,0.68
2022-11-19T18:21:45.792Z,0.77
2022-11-19T18:26:37.589Z,0.60
2022-11-19T18:31:29.793Z,1.35
2022-11-19T18:36:22.126Z,0.68
2022-11-19T18:41:15.762Z,0.90
2022-11-19T18:46:07.310Z,1.10
2022-11-19T18:50:58.917Z,0.60
2022-11-19T18:55:51.053Z,0.93
2022-11-19T19:00:43.101Z,0.70
2022-11-19T19:05:34.866Z,1.30
2022-11-19T19:10:26.514Z,5.63
2022-11-19T19:15:18.383Z,2.08
2022-11-19T19:20:10.663Z,1.05
2022-11-19T19:25:02.609Z,1.08
2022-11-19T19:29:54.197Z,1.42
2022-11-19T19:34:45.981Z,1.45
2022-11-19T19:39:37.593Z,1.05
2022-11-19T19:44:29.232Z,0.95
2022-11-19T19:49:21.472Z,1.05
2022-11-19T19:54:14.235Z,0.93
2022-11-19T19:59:05.867Z,0.90
2022-11-19T20:04:02.694Z,1.08
2022-11-19T20:08:54.366Z,1.30
2022-11-19T20:13:46.297Z,1.98
2022-11-19T20:18:38.845Z,0.85
2022-11-19T20:23:30.797Z,0.70
2022-11-19T20:28:22.423Z,1.10
2022-11-19T20:33:14.041Z,1.92
2022-11-19T20:38:05.666Z,0.90
2022-11-19T20:43:15.933Z,0.95
2022-11-19T20:48:07.679Z,0.70
2022-11-19T20:52:59.300Z,1.23
2022-11-19T20:57:50.909Z,1.20
2022-11-19T21:02:42.580Z,1.10
2022-11-19T21:07:34.301Z,0.95
2022-11-19T21:12:26.107Z,1.15
2022-11-19T21:17:17.715Z,3.10
2022-11-19T21:22:09.336Z,1.98
2022-11-19T21:27:01.053Z,1.95
2022-11-19T21:31:52.811Z,2.03
2022-11-19T21:36:46.003Z,2.08
2022-11-19T21:41:38.295Z,2.47
2022-11-19T21:46:30.370Z,1.33
2022-11-19T21:51:24.910Z,3.33
2022-11-19T21:56:17.011Z,3.35
2022-11-19T22:01:11.270Z,2.15
2022-11-19T22:06:08.471Z,3.22
2022-11-19T22:11:00.500Z,2.95
2022-11-19T22:16:00.676Z,4.90
2022-11-19T22:21:03.140Z,3.05
2022-11-19T22:25:54.821Z,3.92
2022-11-19T22:30:53.026Z,2.35
2022-11-19T22:40:36.236Z,1.42
2022-11-19T22:45:27.951Z,2.30
2022-11-19T22:50:19.649Z,1.50
2022-11-19T22:55:11.715Z,1.33
2022-11-19T23:00:13.138Z,2.30
2022-11-19T23:05:05.468Z,2.70
2022-11-19T23:09:57.311Z,1.50
2022-11-19T23:14:48.907Z,2.05
2022-11-19T23:19:40.775Z,1.50
2022-11-19T23:24:33.514Z,1.88
2022-11-19T23:29:25.155Z,1.88
2022-11-19T23:34:16.688Z,2.40
2022-11-19T23:39:15.066Z,2.00
2022-11-19T23:44:06.950Z,2.38
2022-11-19T23:49:00.273Z,2.17
2022-11-19T23:53:52.793Z,2.20
2022-11-19T23:58:44.913Z,3.00
